createdAt,value
2022-12-06T00:00:02.477Z,14.00
2022-12-06T00:01:02.957Z,14.00
2022-12-06T00:02:03.468Z,13.60
2022-12-06T00:03:03.161Z,13.60
2022-12-06T00:04:03.043Z,13.60
2022-12-06T00:05:03.292Z,13.60
2022-12-06T00:06:03.206Z,13.60
2022-12-06T00:07:03.618Z,13.70
2022-12-06T00:08:03.617Z,13.70
2022-12-06T00:09:03.468Z,13.70
2022-12-06T00:10:03.644Z,13.70
2022-12-06T00:11:03.354Z,13.70
2022-12-06T00:12:02.870Z,13.40
2022-12-06T00:13:02.896Z,13.40
2022-12-06T00:14:02.831Z,13.40
2022-12-06T00:15:02.549Z,13.40
2022-12-06T00:16:02.432Z,13.40
2022-12-06T00:17:03.544Z,13.70
2022-12-06T00:18:03.346Z,13.70
2022-12-06T00:19:03.057Z,13.70
2022-12-06T00:20:03.346Z,13.70
2022-12-06T00:21:03.172Z,13.70
2022-12-06T00:22:03.600Z,14.00
2022-12-06T00:23:03.540Z,14.00
2022-12-06T00:24:03.270Z,14.00
2022-12-06T00:25:03.689Z,14.00
2022-12-06T00:26:03.573Z,14.00
2022-12-06T00:27:02.460Z,13.40
2022-12-06T00:28:02.899Z,13.40
2022-12-06T00:29:02.480Z,13.40
2022-12-06T00:30:02.898Z,13.40
2022-12-06T00:31:02.656Z,13.40
2022-12-06T00:32:02.972Z,13.30
2022-12-06T00:33:03.051Z,13.30
2022-12-06T00:34:02.599Z,13.30
2022-12-06T00:35:02.656Z,13.30
2022-12-06T00:36:02.832Z,13.30
2022-12-06T00:37:02.644Z,13.60
2022-12-06T00:38:02.621Z,13.60
2022-12-06T00:39:03.199Z,13.60
2022-12-06T00:40:03.226Z,13.60
2022-12-06T00:41:02.712Z,13.60
2022-12-06T00:42:02.254Z,13.70
2022-12-06T00:43:02.686Z,13.70
2022-12-06T00:44:02.548Z,13.70
2022-12-06T00:45:02.312Z,13.70
2022-12-06T00:46:02.841Z,13.70
2022-12-06T00:47:02.524Z,13.80
2022-12-06T00:48:03.082Z,13.80
2022-12-06T00:49:02.915Z,13.80
2022-12-06T00:50:02.673Z,13.80
2022-12-06T00:51:03.127Z,13.80
2022-12-06T00:52:02.990Z,13.90
2022-12-06T00:53:03.228Z,13.90
2022-12-06T00:54:03.011Z,13.90
2022-12-06T00:55:03.366Z,13.90
2022-12-06T00:56:03.108Z,13.90
2022-12-06T00:57:02.615Z,13.30
2022-12-06T00:58:03.001Z,13.30
2022-12-06T00:59:03.011Z,13.30
2022-12-06T01:00:02.966Z,13.30
2022-12-06T01:01:02.829Z,13.30
2022-12-06T01:02:02.922Z,13.90
2022-12-06T01:03:02.760Z,13.90
2022-12-06T01:04:02.957Z,13.90
2022-12-06T01:05:02.638Z,13.90
2022-12-06T01:06:02.865Z,13.90
2022-12-06T01:07:02.630Z,13.90
2022-12-06T01:08:03.148Z,13.90
2022-12-06T01:09:02.596Z,13.90
2022-12-06T01:10:03.094Z,13.90
2022-12-06T01:11:02.843Z,13.90
2022-12-06T01:12:03.377Z,14.10
2022-12-06T01:13:03.045Z,14.10
2022-12-06T01:14:02.804Z,14.10
2022-12-06T01:15:03.241Z,14.10
2022-12-06T01:16:02.982Z,14.10
2022-12-06T01:17:03.000Z,13.80
2022-12-06T01:18:02.712Z,13.80
2022-12-06T01:19:02.614Z,13.80
2022-12-06T01:20:02.720Z,13.80
2022-12-06T01:21:02.383Z,13.80
2022-12-06T01:22:02.806Z,13.80
2022-12-06T01:23:03.249Z,13.80
2022-12-06T01:24:02.918Z,13.80
2022-12-06T01:25:02.752Z,13.80
2022-12-06T01:26:03.209Z,13.80
2022-12-06T01:27:02.047Z,14.80
2022-12-06T01:28:01.876Z,14.80
2022-12-06T01:29:02.083Z,14.80
2022-12-06T01:30:02.414Z,14.80
2022-12-06T01:31:02.284Z,14.80
2022-12-06T01:32:02.222Z,13.70
2022-12-06T01:33:02.105Z,13.70
2022-12-06T01:34:01.904Z,13.70
2022-12-06T01:35:02.375Z,13.70
2022-12-06T01:36:02.157Z,13.70
2022-12-06T01:37:02.609Z,13.60
2022-12-06T01:38:06.115Z,13.60
2022-12-06T01:39:02.552Z,13.60
2022-12-06T01:40:03.032Z,13.60
2022-12-06T01:41:02.548Z,13.60
2022-12-06T01:42:02.289Z,14.30
2022-12-06T01:43:02.096Z,14.30
2022-12-06T01:44:01.885Z,14.30
2022-12-06T01:45:02.362Z,14.30
2022-12-06T01:46:01.958Z,14.30
2022-12-06T01:47:02.836Z,13.60
2022-12-06T01:48:02.612Z,13.60
2022-12-06T01:49:02.356Z,13.60
2022-12-06T01:50:03.109Z,13.60
2022-12-06T01:51:02.680Z,13.60
2022-12-06T01:52:02.553Z,13.70
2022-12-06T01:53:02.785Z,13.70
2022-12-06T01:54:02.611Z,13.70
2022-12-06T01:55:02.366Z,13.70
2022-12-06T01:56:02.811Z,13.70
2022-12-06T01:57:02.385Z,12.90
2022-12-06T01:58:01.899Z,12.90
2022-12-06T01:59:01.784Z,12.90
2022-12-06T02:00:02.537Z,12.90
2022-12-06T02:01:02.314Z,12.90
2022-12-06T02:02:03.330Z,14.00
2022-12-06T02:03:03.379Z,14.00
2022-12-06T02:04:03.774Z,14.00
2022-12-06T02:05:03.406Z,14.00
2022-12-06T02:06:03.570Z,14.00
2022-12-06T02:07:02.909Z,13.30
2022-12-06T02:08:02.809Z,13.30
2022-12-06T02:09:03.225Z,13.30
2022-12-06T02:10:02.859Z,13.30
2022-12-06T02:11:02.668Z,13.30
2022-12-06T02:12:03.104Z,13.20
2022-12-06T02:13:02.831Z,13.20
2022-12-06T02:14:03.057Z,13.20
2022-12-06T02:15:03.172Z,13.20
2022-12-06T02:16:02.818Z,13.20
2022-12-06T02:17:03.351Z,14.30
2022-12-06T02:18:03.197Z,14.30
2022-12-06T02:19:02.983Z,14.30
2022-12-06T02:20:03.607Z,14.30
2022-12-06T02:21:03.246Z,14.30
2022-12-06T02:22:02.834Z,13.60
2022-12-06T02:23:02.847Z,13.60
2022-12-06T02:24:02.880Z,13.60
2022-12-06T02:25:02.654Z,13.60
2022-12-06T02:26:02.402Z,13.60
2022-12-06T02:27:03.112Z,12.80
2022-12-06T02:28:02.647Z,12.80
2022-12-06T02:29:03.079Z,12.80
2022-12-06T02:30:02.693Z,12.80
2022-12-06T02:31:02.622Z,12.80
2022-12-06T02:32:02.800Z,13.30
2022-12-06T02:33:03.131Z,13.30
2022-12-06T02:34:03.380Z,13.30
2022-12-06T02:35:03.035Z,13.30
2022-12-06T02:36:03.190Z,13.30
2022-12-06T02:37:02.702Z,13.30
2022-12-06T02:38:02.467Z,13.30
2022-12-06T02:39:02.523Z,13.30
2022-12-06T02:40:02.990Z,13.30
2022-12-06T02:41:02.674Z,13.30
2022-12-06T02:42:03.162Z,13.00
2022-12-06T02:43:02.943Z,13.00
2022-12-06T02:44:03.122Z,13.00
2022-12-06T02:45:02.963Z,13.00
2022-12-06T02:46:02.774Z,13.00
2022-12-06T02:47:03.255Z,12.90
2022-12-06T02:48:03.146Z,12.90
2022-12-06T02:49:03.355Z,12.90
2022-12-06T02:50:03.165Z,12.90
2022-12-06T02:51:03.435Z,12.90
2022-12-06T02:52:02.294Z,12.20
2022-12-06T02:53:02.801Z,12.20
2022-12-06T02:54:02.474Z,12.20
2022-12-06T02:55:02.852Z,12.20
2022-12-06T02:56:02.807Z,12.20
2022-12-06T02:57:02.983Z,12.30
2022-12-06T02:58:02.639Z,12.30
2022-12-06T02:59:03.100Z,12.30
2022-12-06T03:00:03.004Z,12.30
2022-12-06T03:01:02.816Z,12.30
2022-12-06T03:02:03.477Z,12.80
2022-12-06T03:03:03.505Z,12.80
2022-12-06T03:04:03.222Z,12.80
2022-12-06T03:05:03.252Z,12.80
2022-12-06T03:06:02.933Z,12.80
2022-12-06T03:07:02.591Z,11.70
2022-12-06T03:08:02.582Z,11.70
2022-12-06T03:09:02.426Z,11.70
2022-12-06T03:10:02.557Z,11.70
2022-12-06T03:11:02.242Z,11.70
2022-12-06T03:12:02.305Z,12.00
2022-12-06T03:13:02.057Z,12.00
2022-12-06T03:14:01.813Z,12.00
2022-12-06T03:15:02.041Z,12.00
2022-12-06T03:16:02.339Z,12.00
2022-12-06T03:17:02.599Z,11.60
2022-12-06T03:18:02.144Z,11.60
2022-12-06T03:19:02.607Z,11.60
2022-12-06T03:20:02.439Z,11.60
2022-12-06T03:21:02.266Z,11.60
2022-12-06T03:22:02.707Z,11.60
2022-12-06T03:23:02.149Z,11.60
2022-12-06T03:24:02.766Z,11.60
2022-12-06T03:25:02.284Z,11.60
2022-12-06T03:26:02.083Z,11.60
2022-12-06T03:27:02.942Z,12.50
2022-12-06T03:28:02.638Z,12.50
2022-12-06T03:29:02.861Z,12.50
2022-12-06T03:30:02.790Z,12.50
2022-12-06T03:31:03.119Z,12.50
2022-12-06T03:32:02.655Z,12.80
2022-12-06T03:33:02.154Z,12.80
2022-12-06T03:34:02.000Z,12.80
2022-12-06T03:35:02.436Z,12.80
2022-12-06T03:36:02.093Z,12.80
2022-12-06T03:37:03.247Z,11.80
2022-12-06T03:38:02.990Z,11.80
2022-12-06T03:39:02.757Z,11.80
2022-12-06T03:40:03.367Z,11.80
2022-12-06T03:41:02.722Z,11.80
2022-12-06T03:42:02.221Z,11.90
2022-12-06T03:43:02.645Z,11.90
2022-12-06T03:44:02.437Z,11.90
2022-12-06T03:45:02.848Z,11.90
2022-12-06T03:46:02.602Z,11.90
2022-12-06T03:47:02.608Z,11.90
2022-12-06T03:48:02.669Z,11.90
2022-12-06T03:49:03.111Z,11.90
2022-12-06T03:50:03.136Z,11.90
2022-12-06T03:51:02.730Z,11.90
2022-12-06T03:52:02.796Z,12.00
2022-12-06T03:53:02.173Z,12.00
2022-12-06T03:54:02.658Z,12.00
2022-12-06T03:55:02.102Z,12.00
2022-12-06T03:56:02.133Z,12.00
2022-12-06T03:57:02.584Z,11.70
2022-12-06T03:58:03.030Z,11.70
2022-12-06T03:59:02.765Z,11.70
2022-12-06T04:00:02.873Z,11.70
2022-12-06T04:01:02.748Z,11.70
2022-12-06T04:02:02.366Z,12.50
2022-12-06T04:03:02.247Z,12.50
2022-12-06T04:04:02.749Z,12.50
2022-12-06T04:05:02.256Z,12.50
2022-12-06T04:06:02.702Z,12.50
2022-12-06T04:07:01.942Z,12.50
2022-12-06T04:08:02.424Z,12.50
2022-12-06T04:09:01.908Z,12.50
2022-12-06T04:10:02.135Z,12.50
2022-12-06T04:11:01.805Z,12.50
2022-12-06T04:12:02.188Z,11.90
2022-12-06T04:13:02.592Z,11.90
2022-12-06T04:14:02.130Z,11.90
2022-12-06T04:15:01.924Z,11.90
2022-12-06T04:16:02.504Z,11.90
2022-12-06T04:17:02.199Z,11.70
2022-12-06T04:18:02.018Z,11.70
2022-12-06T04:19:02.242Z,11.70
2022-12-06T04:20:02.776Z,11.70
2022-12-06T04:21:01.951Z,11.70
2022-12-06T04:22:02.555Z,12.00
2022-12-06T04:23:02.690Z,12.00
2022-12-06T04:24:02.955Z,12.00
2022-12-06T04:25:02.311Z,12.00
2022-12-06T04:26:02.650Z,12.00
2022-12-06T04:27:02.107Z,12.10
2022-12-06T04:28:02.471Z,12.10
2022-12-06T04:29:01.868Z,12.10
2022-12-06T04:30:02.539Z,12.10
2022-12-06T04:31:02.160Z,12.10
2022-12-06T04:32:03.040Z,12.50
2022-12-06T04:33:02.869Z,12.50
2022-12-06T04:34:02.811Z,12.50
2022-12-06T04:35:02.679Z,12.50
2022-12-06T04:36:02.847Z,12.50
2022-12-06T04:37:02.112Z,12.90
2022-12-06T04:38:02.130Z,12.90
2022-12-06T04:39:02.300Z,12.90
2022-12-06T04:40:02.597Z,12.90
2022-12-06T04:41:02.286Z,12.90
2022-12-06T04:42:02.516Z,13.10
2022-12-06T04:43:02.246Z,13.10
2022-12-06T04:44:02.229Z,13.10
2022-12-06T04:45:02.734Z,13.10
2022-12-06T04:46:02.162Z,13.10
2022-12-06T04:47:02.283Z,13.20
2022-12-06T04:48:02.026Z,13.20
2022-12-06T04:49:01.937Z,13.20
2022-12-06T04:50:01.916Z,13.20
2022-12-06T04:51:02.024Z,13.20
2022-12-06T04:52:02.264Z,12.90
2022-12-06T04:53:01.918Z,12.90
2022-12-06T04:54:02.282Z,12.90
2022-12-06T04:55:02.216Z,12.90
2022-12-06T04:56:02.073Z,13.50
2022-12-06T04:57:02.719Z,13.50
2022-12-06T04:58:02.198Z,13.50
2022-12-06T04:59:02.645Z,13.50
2022-12-06T05:00:02.861Z,13.50
2022-12-06T05:01:02.657Z,13.50
2022-12-06T05:02:02.666Z,13.50
2022-12-06T05:03:02.435Z,13.50
2022-12-06T05:04:02.267Z,13.50
2022-12-06T05:05:02.555Z,13.50
2022-12-06T05:06:02.470Z,14.20
2022-12-06T05:07:02.485Z,14.20
2022-12-06T05:08:02.988Z,14.20
2022-12-06T05:09:02.479Z,14.20
2022-12-06T05:10:02.969Z,14.20
2022-12-06T05:11:02.496Z,14.10
2022-12-06T05:12:02.646Z,14.10
2022-12-06T05:13:03.190Z,14.10
2022-12-06T05:14:02.665Z,14.10
2022-12-06T05:15:02.763Z,14.10
2022-12-06T05:16:02.633Z,13.60
2022-12-06T05:17:02.050Z,13.60
2022-12-06T05:18:01.960Z,13.60
2022-12-06T05:19:02.082Z,13.60
2022-12-06T05:20:02.145Z,13.60
2022-12-06T05:21:02.435Z,14.20
2022-12-06T05:22:02.159Z,14.20
2022-12-06T05:23:01.926Z,14.20
2022-12-06T05:24:02.174Z,14.20
2022-12-06T05:25:01.739Z,14.20
2022-12-06T05:26:02.198Z,14.50
2022-12-06T05:27:02.774Z,14.50
2022-12-06T05:28:02.561Z,14.50
2022-12-06T05:29:02.272Z,14.50
2022-12-06T05:30:02.801Z,14.50
2022-12-06T05:31:02.641Z,15.10
2022-12-06T05:32:03.002Z,15.10
2022-12-06T05:33:03.014Z,15.10
2022-12-06T05:34:03.112Z,15.10
2022-12-06T05:35:02.499Z,15.10
2022-12-06T05:36:02.916Z,14.60
2022-12-06T05:37:02.385Z,14.60
2022-12-06T05:38:02.212Z,14.60
2022-12-06T05:39:02.042Z,14.60
2022-12-06T05:40:02.643Z,14.60
2022-12-06T05:41:02.468Z,15.20
2022-12-06T05:42:02.652Z,15.20
2022-12-06T05:43:02.430Z,15.20
2022-12-06T05:44:02.156Z,15.20
2022-12-06T05:45:02.601Z,15.20
2022-12-06T05:46:02.304Z,15.20
2022-12-06T05:47:02.475Z,15.20
2022-12-06T05:48:02.335Z,15.20
2022-12-06T05:49:02.272Z,15.20
2022-12-06T05:50:02.962Z,15.20
2022-12-06T05:51:02.748Z,16.50
2022-12-06T05:52:04.152Z,16.50
2022-12-06T05:53:01.691Z,16.50
2022-12-06T05:54:01.941Z,16.50
2022-12-06T05:55:01.693Z,16.50
2022-12-06T05:56:02.122Z,15.60
2022-12-06T05:57:02.050Z,15.60
2022-12-06T05:58:02.515Z,15.60
2022-12-06T05:59:02.329Z,15.60
2022-12-06T06:00:02.467Z,15.60
2022-12-06T06:01:02.242Z,15.00
2022-12-06T06:02:03.141Z,15.00
2022-12-06T06:03:02.889Z,15.00
2022-12-06T06:04:02.441Z,15.00
2022-12-06T06:05:02.568Z,15.00
2022-12-06T06:06:03.008Z,15.50
2022-12-06T06:07:03.273Z,15.50
2022-12-06T06:08:02.891Z,15.50
2022-12-06T06:09:02.982Z,15.50
2022-12-06T06:10:03.407Z,15.50
2022-12-06T06:11:03.251Z,15.70
2022-12-06T06:12:06.924Z,15.70
2022-12-06T06:13:03.498Z,15.70
2022-12-06T06:14:03.684Z,15.70
2022-12-06T06:15:03.462Z,15.70
2022-12-06T06:16:03.272Z,17.20
2022-12-06T06:17:02.843Z,17.20
2022-12-06T06:18:02.429Z,17.20
2022-12-06T06:19:02.724Z,17.20
2022-12-06T06:20:02.867Z,17.20
2022-12-06T06:21:02.510Z,17.50
2022-12-06T06:22:03.653Z,17.50
2022-12-06T06:23:03.448Z,17.50
2022-12-06T06:24:03.251Z,17.50
2022-12-06T06:25:03.825Z,17.50
2022-12-06T06:26:03.444Z,19.80
2022-12-06T06:27:03.203Z,19.80
2022-12-06T06:28:03.400Z,19.80
2022-12-06T06:29:03.651Z,19.80
2022-12-06T06:30:03.479Z,19.80
2022-12-06T06:31:03.550Z,18.80
2022-12-06T06:32:02.523Z,18.80
2022-12-06T06:33:03.025Z,18.80
2022-12-06T06:34:02.619Z,18.80
2022-12-06T06:35:02.592Z,18.80
2022-12-06T06:36:02.441Z,20.10
2022-12-06T06:37:03.607Z,20.10
2022-12-06T06:38:03.402Z,20.10
2022-12-06T06:39:03.231Z,20.10
2022-12-06T06:40:03.382Z,20.10
2022-12-06T06:41:03.588Z,19.10
2022-12-06T06:42:02.379Z,19.10
2022-12-06T06:43:02.970Z,19.10
2022-12-06T06:44:02.667Z,19.10
2022-12-06T06:45:04.172Z,19.10
2022-12-06T06:46:02.897Z,18.20
2022-12-06T06:47:02.893Z,18.20
2022-12-06T06:48:02.878Z,18.20
2022-12-06T06:49:02.658Z,18.20
2022-12-06T06:50:03.431Z,18.20
2022-12-06T06:51:03.177Z,18.90
2022-12-06T06:52:02.819Z,18.90
2022-12-06T06:53:03.269Z,18.90
2022-12-06T06:54:03.217Z,18.90
2022-12-06T06:55:02.989Z,18.90
2022-12-06T06:56:02.803Z,18.90
2022-12-06T06:57:03.010Z,18.90
2022-12-06T06:58:02.993Z,18.90
2022-12-06T06:59:03.557Z,18.90
2022-12-06T07:00:03.427Z,18.90
2022-12-06T07:01:03.630Z,18.50
2022-12-06T07:02:03.285Z,18.50
2022-12-06T07:03:03.104Z,18.50
2022-12-06T07:04:03.338Z,18.50
2022-12-06T07:05:03.268Z,18.50
2022-12-06T07:06:03.089Z,18.50
2022-12-06T07:07:03.061Z,18.50
2022-12-06T07:08:03.622Z,18.50
2022-12-06T07:09:03.500Z,18.50
2022-12-06T07:10:03.613Z,18.50
2022-12-06T07:11:03.558Z,18.90
2022-12-06T07:12:03.280Z,18.90
2022-12-06T07:13:03.586Z,18.90
2022-12-06T07:14:03.511Z,18.90
2022-12-06T07:15:03.707Z,18.90
2022-12-06T07:16:03.436Z,17.60
2022-12-06T07:17:02.939Z,17.60
2022-12-06T07:18:02.875Z,17.60
2022-12-06T07:19:08.702Z,17.60
2022-12-06T07:20:03.528Z,17.60
2022-12-06T07:21:03.246Z,18.60
2022-12-06T07:22:03.120Z,18.60
2022-12-06T07:23:03.447Z,18.60
2022-12-06T07:24:03.400Z,18.60
2022-12-06T07:25:03.134Z,18.60
2022-12-06T07:26:03.127Z,17.50
2022-12-06T07:27:02.751Z,17.50
2022-12-06T07:28:02.660Z,17.50
2022-12-06T07:29:02.815Z,17.50
2022-12-06T07:30:03.321Z,17.50
2022-12-06T07:31:03.048Z,17.90
2022-12-06T07:32:03.164Z,17.90
2022-12-06T07:33:03.503Z,17.90
2022-12-06T07:34:02.908Z,17.90
2022-12-06T07:35:02.991Z,17.90
2022-12-06T07:36:12.032Z,17.80
2022-12-06T07:37:03.425Z,17.80
2022-12-06T07:38:03.237Z,17.80
2022-12-06T07:39:03.140Z,17.80
2022-12-06T07:40:03.326Z,17.80
2022-12-06T07:41:04.719Z,18.40
2022-12-06T07:42:03.227Z,18.40
2022-12-06T07:43:03.071Z,18.40
2022-12-06T07:44:03.226Z,18.40
2022-12-06T07:45:03.384Z,18.40
2022-12-06T07:46:03.225Z,21.20
2022-12-06T07:47:02.844Z,21.20
2022-12-06T07:48:02.803Z,21.20
2022-12-06T07:49:02.736Z,21.20
2022-12-06T07:50:02.833Z,21.20
2022-12-06T07:51:02.894Z,18.80
2022-12-06T07:52:03.020Z,18.80
2022-12-06T07:53:02.998Z,18.80
2022-12-06T07:54:02.879Z,18.80
2022-12-06T07:55:03.378Z,18.80
2022-12-06T07:56:03.372Z,17.80
2022-12-06T07:57:02.646Z,17.80
2022-12-06T07:58:02.528Z,17.80
2022-12-06T07:59:02.441Z,17.80
2022-12-06T08:00:03.127Z,17.80
2022-12-06T08:01:02.697Z,18.30
2022-12-06T08:02:02.089Z,18.30
2022-12-06T08:03:01.964Z,18.30
2022-12-06T08:04:02.669Z,18.30
2022-12-06T08:05:02.408Z,18.30
2022-12-06T08:06:02.324Z,18.10
2022-12-06T08:07:02.587Z,18.10
2022-12-06T08:08:02.364Z,18.10
2022-12-06T08:09:02.260Z,18.10
2022-12-06T08:10:02.814Z,18.10
2022-12-06T08:11:02.514Z,19.00
2022-12-06T08:12:03.154Z,19.00
2022-12-06T08:13:02.856Z,19.00
2022-12-06T08:14:02.647Z,19.00
2022-12-06T08:15:02.560Z,19.00
2022-12-06T08:16:03.129Z,18.90
2022-12-06T08:17:03.332Z,18.90
2022-12-06T08:18:02.877Z,18.90
2022-12-06T08:19:02.763Z,18.90
2022-12-06T08:20:02.974Z,18.90
2022-12-06T08:21:02.735Z,18.60
2022-12-06T08:22:02.169Z,18.60
2022-12-06T08:23:01.913Z,18.60
2022-12-06T08:24:02.169Z,18.60
2022-12-06T08:25:01.718Z,18.60
2022-12-06T08:26:02.346Z,18.80
2022-12-06T08:27:02.578Z,18.80
2022-12-06T08:28:02.354Z,18.80
2022-12-06T08:29:02.261Z,18.80
2022-12-06T08:30:02.967Z,18.80
2022-12-06T08:31:03.431Z,18.20
2022-12-06T08:32:02.785Z,18.20
2022-12-06T08:33:02.584Z,18.20
2022-12-06T08:34:02.942Z,18.20
2022-12-06T08:35:02.627Z,18.20
2022-12-06T08:36:02.593Z,18.80
2022-12-06T08:37:03.685Z,18.80
2022-12-06T08:38:02.084Z,18.80
2022-12-06T08:40:02.651Z,18.80
2022-12-06T08:41:02.126Z,19.40
2022-12-06T08:42:02.694Z,19.40
2022-12-06T08:43:02.572Z,19.40
2022-12-06T08:44:02.413Z,19.40
2022-12-06T08:45:02.848Z,19.40
2022-12-06T08:46:02.322Z,18.60
2022-12-06T08:47:02.244Z,18.60
2022-12-06T08:48:02.180Z,18.60
2022-12-06T08:49:01.804Z,18.60
2022-12-06T08:50:01.987Z,18.60
2022-12-06T08:51:01.752Z,18.70
2022-12-06T08:52:02.311Z,18.70
2022-12-06T08:53:02.207Z,18.70
2022-12-06T08:54:02.103Z,18.70
2022-12-06T08:55:01.921Z,18.70
2022-12-06T08:56:02.998Z,19.30
2022-12-06T08:57:02.741Z,19.30
2022-12-06T08:58:02.661Z,19.30
2022-12-06T08:59:02.465Z,19.30
2022-12-06T09:00:02.702Z,19.30
2022-12-06T09:01:02.721Z,20.20
2022-12-06T09:02:01.944Z,20.20
2022-12-06T09:03:02.068Z,20.20
2022-12-06T09:04:02.040Z,20.20
2022-12-06T09:05:02.065Z,20.20
2022-12-06T09:06:01.775Z,19.90
2022-12-06T09:07:03.218Z,19.90
2022-12-06T09:08:02.356Z,19.90
2022-12-06T09:09:01.827Z,19.90
2022-12-06T09:10:02.628Z,19.90
2022-12-06T09:11:02.089Z,19.60
2022-12-06T09:12:01.921Z,19.60
2022-12-06T09:13:02.434Z,19.60
2022-12-06T09:14:02.444Z,19.60
2022-12-06T09:15:02.088Z,19.60
2022-12-06T09:16:02.552Z,19.30
2022-12-06T09:17:03.113Z,19.30
2022-12-06T09:18:02.761Z,19.30
2022-12-06T09:19:02.562Z,19.30
2022-12-06T09:20:06.109Z,19.30
2022-12-06T09:21:02.827Z,19.80
2022-12-06T09:22:03.099Z,19.80
2022-12-06T09:23:02.555Z,19.80
2022-12-06T09:24:03.123Z,19.80
2022-12-06T09:25:02.834Z,19.80
2022-12-06T09:26:02.831Z,20.20
2022-12-06T09:27:02.463Z,20.20
2022-12-06T09:28:01.810Z,20.20
2022-12-06T09:29:02.116Z,20.20
2022-12-06T09:30:02.430Z,20.20
2022-12-06T09:31:02.293Z,21.20
2022-12-06T09:32:02.739Z,21.20
2022-12-06T09:33:02.315Z,21.20
2022-12-06T09:34:02.524Z,21.20
2022-12-06T09:35:02.753Z,21.20
2022-12-06T09:36:02.284Z,20.50
2022-12-06T09:37:01.801Z,20.50
2022-12-06T09:38:02.143Z,20.50
2022-12-06T09:39:02.073Z,20.50
2022-12-06T09:40:02.608Z,20.50
2022-12-06T09:41:02.432Z,21.00
2022-12-06T09:42:01.908Z,21.00
2022-12-06T09:43:02.219Z,21.00
2022-12-06T09:44:02.467Z,21.00
2022-12-06T09:45:02.224Z,21.00
2022-12-06T09:46:02.103Z,20.20
2022-12-06T09:47:02.049Z,20.20
2022-12-06T09:48:02.299Z,20.20
2022-12-06T09:49:02.423Z,20.20
2022-12-06T09:50:02.909Z,20.20
2022-12-06T09:51:02.680Z,20.00
2022-12-06T09:52:02.647Z,20.00
2022-12-06T09:53:02.320Z,20.00
2022-12-06T09:54:02.862Z,20.00
2022-12-06T09:55:02.857Z,20.00
2022-12-06T09:56:02.313Z,19.60
2022-12-06T09:57:02.346Z,19.60
2022-12-06T09:58:01.867Z,19.60
2022-12-06T09:59:02.017Z,19.60
2022-12-06T10:00:02.164Z,19.60
2022-12-06T10:01:01.904Z,21.50
2022-12-06T10:02:03.387Z,21.50
2022-12-06T10:03:03.468Z,21.50
2022-12-06T10:04:02.889Z,21.50
2022-12-06T10:05:03.501Z,21.50
2022-12-06T10:06:03.316Z,21.20
2022-12-06T10:07:03.472Z,21.20
2022-12-06T10:08:03.584Z,21.20
2022-12-06T10:09:03.228Z,21.20
2022-12-06T10:10:03.583Z,21.20
2022-12-06T10:11:08.563Z,21.10
2022-12-06T10:12:02.450Z,21.10
2022-12-06T10:13:02.687Z,21.10
2022-12-06T10:14:02.488Z,21.10
2022-12-06T10:15:02.514Z,21.10
2022-12-06T10:16:02.631Z,22.60
2022-12-06T10:17:03.015Z,22.60
2022-12-06T10:18:03.227Z,22.60
2022-12-06T10:19:03.087Z,22.60
2022-12-06T10:20:02.789Z,22.60
2022-12-06T10:21:03.055Z,24.00
2022-12-06T10:22:03.558Z,24.00
2022-12-06T10:23:03.079Z,24.00
2022-12-06T10:24:03.298Z,24.00
2022-12-06T10:25:03.152Z,24.00
2022-12-06T10:26:03.269Z,23.80
2022-12-06T10:27:02.567Z,23.80
2022-12-06T10:28:02.773Z,23.80
2022-12-06T10:29:02.749Z,23.80
2022-12-06T10:30:03.009Z,23.80
2022-12-06T10:31:02.624Z,24.40
2022-12-06T10:32:03.058Z,24.40
2022-12-06T10:33:03.304Z,24.40
2022-12-06T10:34:03.154Z,24.40
2022-12-06T10:35:03.586Z,24.40
2022-12-06T10:36:02.703Z,24.80
2022-12-06T10:37:02.742Z,24.80
2022-12-06T10:38:02.870Z,24.80
2022-12-06T10:39:02.751Z,24.80
2022-12-06T10:40:03.237Z,24.80
2022-12-06T10:41:02.557Z,25.40
2022-12-06T10:42:03.120Z,25.40
2022-12-06T10:43:03.111Z,25.40
2022-12-06T10:44:03.456Z,25.40
2022-12-06T10:45:03.418Z,25.40
2022-12-06T10:46:08.731Z,23.80
2022-12-06T10:47:02.873Z,23.80
2022-12-06T10:48:02.900Z,23.80
2022-12-06T10:49:02.631Z,23.80
2022-12-06T10:50:02.992Z,23.80
2022-12-06T10:51:03.050Z,24.30
2022-12-06T10:52:02.484Z,24.30
2022-12-06T10:53:02.499Z,24.30
2022-12-06T10:54:02.350Z,24.30
2022-12-06T10:55:02.561Z,24.30
2022-12-06T10:56:02.487Z,24.60
2022-12-06T10:57:02.744Z,24.60
2022-12-06T10:58:02.507Z,24.60
2022-12-06T10:59:02.713Z,24.60
2022-12-06T11:00:04.013Z,24.60
2022-12-06T11:01:02.601Z,23.70
2022-12-06T11:02:01.871Z,23.70
2022-12-06T11:03:01.656Z,23.70
2022-12-06T11:04:02.056Z,23.70
2022-12-06T11:05:02.053Z,23.70
2022-12-06T11:06:02.020Z,23.10
2022-12-06T11:07:02.208Z,23.10
2022-12-06T11:08:02.152Z,23.10
2022-12-06T11:09:01.930Z,23.10
2022-12-06T11:10:02.199Z,23.10
2022-12-06T11:11:02.373Z,23.70
2022-12-06T11:12:02.140Z,23.70
2022-12-06T11:13:02.236Z,23.70
2022-12-06T11:14:02.178Z,23.70
2022-12-06T11:15:02.264Z,23.70
2022-12-06T11:16:02.889Z,28.90
2022-12-06T11:17:02.619Z,28.90
2022-12-06T11:18:02.866Z,28.90
2022-12-06T11:19:02.480Z,28.90
2022-12-06T11:20:02.986Z,28.90
2022-12-06T11:21:02.306Z,21.10
2022-12-06T11:22:01.892Z,21.10
2022-12-06T11:23:01.520Z,21.10
2022-12-06T11:24:01.859Z,21.10
2022-12-06T11:25:01.750Z,21.10
2022-12-06T11:26:01.891Z,21.90
2022-12-06T11:27:02.517Z,21.90
2022-12-06T11:28:02.532Z,21.90
2022-12-06T11:29:02.596Z,21.90
2022-12-06T11:30:02.732Z,21.90
2022-12-06T11:31:02.726Z,21.90
2022-12-06T11:32:01.978Z,21.90
2022-12-06T11:33:01.761Z,21.90
2022-12-06T11:34:02.040Z,21.90
2022-12-06T11:35:01.768Z,21.90
2022-12-06T11:36:01.583Z,21.40
2022-12-06T11:37:02.377Z,21.40
2022-12-06T11:38:02.245Z,21.40
2022-12-06T11:39:02.254Z,21.40
2022-12-06T11:40:02.162Z,21.40
2022-12-06T11:41:02.349Z,22.30
2022-12-06T11:42:01.875Z,22.30
2022-12-06T11:43:01.962Z,22.30
2022-12-06T11:44:01.410Z,22.30
2022-12-06T11:45:01.737Z,22.30
2022-12-06T11:46:01.739Z,21.90
2022-12-06T11:47:02.724Z,21.90
2022-12-06T11:48:02.415Z,21.90
2022-12-06T11:49:02.248Z,21.90
2022-12-06T11:50:07.960Z,21.90
2022-12-06T11:51:02.558Z,21.40
2022-12-06T11:52:02.028Z,21.40
2022-12-06T11:53:01.681Z,21.40
2022-12-06T11:54:01.792Z,21.40
2022-12-06T11:55:01.838Z,21.40
2022-12-06T11:56:01.980Z,22.80
2022-12-06T11:57:02.583Z,22.80
2022-12-06T11:58:02.402Z,22.80
2022-12-06T11:59:02.475Z,22.80
2022-12-06T12:00:02.605Z,22.80
2022-12-06T12:01:02.656Z,20.90
2022-12-06T12:02:03.047Z,20.90
2022-12-06T12:03:03.022Z,20.90
2022-12-06T12:04:03.067Z,20.90
2022-12-06T12:05:03.067Z,20.90
2022-12-06T12:06:02.492Z,21.10
2022-12-06T12:07:03.367Z,21.10
2022-12-06T12:08:03.225Z,21.10
2022-12-06T12:09:03.081Z,21.10
2022-12-06T12:10:02.855Z,21.10
2022-12-06T12:11:03.215Z,21.00
2022-12-06T12:12:03.088Z,21.00
2022-12-06T12:13:02.843Z,21.00
2022-12-06T12:14:02.644Z,21.00
2022-12-06T12:15:02.832Z,21.00
2022-12-06T12:16:02.712Z,21.10
2022-12-06T12:17:02.238Z,21.10
2022-12-06T12:18:02.689Z,21.10
2022-12-06T12:19:02.594Z,21.10
2022-12-06T12:20:02.300Z,21.10
2022-12-06T12:21:02.573Z,22.10
2022-12-06T12:22:02.764Z,22.10
2022-12-06T12:23:02.819Z,22.10
2022-12-06T12:24:03.302Z,22.10
2022-12-06T12:25:19.798Z,22.10
2022-12-06T12:26:02.982Z,22.80
2022-12-06T12:27:02.930Z,22.80
2022-12-06T12:28:03.458Z,22.80
2022-12-06T12:29:02.941Z,22.80
2022-12-06T12:30:03.224Z,22.80
2022-12-06T12:31:03.346Z,21.90
2022-12-06T12:32:03.514Z,21.90
2022-12-06T12:33:02.778Z,21.90
2022-12-06T12:34:02.659Z,21.90
2022-12-06T12:35:03.132Z,21.90
2022-12-06T12:36:02.422Z,22.50
2022-12-06T12:37:02.687Z,22.50
2022-12-06T12:38:03.480Z,22.50
2022-12-06T12:39:03.256Z,22.50
2022-12-06T12:40:07.488Z,22.50
2022-12-06T12:41:03.351Z,23.30
2022-12-06T12:42:03.199Z,23.30
2022-12-06T12:43:02.590Z,23.30
2022-12-06T12:44:28.898Z,23.30
2022-12-06T12:45:03.016Z,23.30
2022-12-06T12:46:03.359Z,21.00
2022-12-06T12:47:02.698Z,21.00
2022-12-06T12:48:02.725Z,21.00
2022-12-06T12:49:02.652Z,21.00
2022-12-06T12:50:03.023Z,21.00
2022-12-06T12:51:02.751Z,22.00
2022-12-06T12:52:02.664Z,22.00
2022-12-06T12:53:03.110Z,22.00